sensor_id;sensor_type;location;lat;lon;timestamp;temperature;humidity
9820;DHT22;4949;48.482;9.206;2023-03-01T00:03:03;0.00;68.30
9820;DHT22;4949;48.482;9.206;2023-03-01T00:08:03;-0.10;68.30
9820;DHT22;4949;48.482;9.206;2023-03-01T00:13:09;-0.20;68.80
9820;DHT22;4949;48.482;9.206;2023-03-01T00:18:12;-0.20;68.80
9820;DHT22;4949;48.482;9.206;2023-03-01T00:23:13;-0.20;68.70
9820;DHT22;4949;48.482;9.206;2023-03-01T00:28:16;-0.30;68.80
9820;DHT22;4949;48.482;9.206;2023-03-01T00:33:19;-0.30;68.40
9820;DHT22;4949;48.482;9.206;2023-03-01T00:38:22;-0.30;69.40
9820;DHT22;4949;48.482;9.206;2023-03-01T00:43:23;-0.40;69.40
9820;DHT22;4949;48.482;9.206;2023-03-01T00:48:24;-0.50;69.60
9820;DHT22;4949;48.482;9.206;2023-03-01T00:53:24;-0.50;69.50
9820;DHT22;4949;48.482;9.206;2023-03-01T00:58:25;-0.50;69.80
9820;DHT22;4949;48.482;9.206;2023-03-01T01:03:28;-0.60;69.80
9820;DHT22;4949;48.482;9.206;2023-03-01T01:08:29;-0.60;70.20
9820;DHT22;4949;48.482;9.206;2023-03-01T01:13:32;-0.60;70.00
9820;DHT22;4949;48.482;9.206;2023-03-01T01:18:35;-0.70;70.80
9820;DHT22;4949;48.482;9.206;2023-03-01T01:23:38;-0.70;70.10
9820;DHT22;4949;48.482;9.206;2023-03-01T01:28:39;-0.70;70.00
9820;DHT22;4949;48.482;9.206;2023-03-01T01:33:45;-0.80;70.60
9820;DHT22;4949;48.482;9.206;2023-03-01T01:38:48;-0.80;71.00
9820;DHT22;4949;48.482;9.206;2023-03-01T01:44:21;-0.80;70.90
9820;DHT22;4949;48.482;9.206;2023-03-01T02:00:14;-0.70;71.00
9820;DHT22;4949;48.482;9.206;2023-03-01T02:05:42;-0.60;71.00
9820;DHT22;4949;48.482;9.206;2023-03-01T02:10:49;-0.40;71.20
9820;DHT22;4949;48.482;9.206;2023-03-01T02:15:50;-0.30;70.90
9820;DHT22;4949;48.482;9.206;2023-03-01T02:30:55;-0.20;71.20
9820;DHT22;4949;48.482;9.206;2023-03-01T02:36:24;-0.20;71.20
9820;DHT22;4949;48.482;9.206;2023-03-01T02:41:33;-0.20;71.20
9820;DHT22;4949;48.482;9.206;2023-03-01T02:46:44;-0.10;71.00
9820;DHT22;4949;48.482;9.206;2023-03-01T02:57:01;0.00;70.80
9820;DHT22;4949;48.482;9.206;2023-03-01T03:02:05;0.00;71.10
9820;DHT22;4949;48.482;9.206;2023-03-01T03:07:09;0.10;70.60
9820;DHT22;4949;48.482;9.206;2023-03-01T03:12:10;0.10;69.90
9820;DHT22;4949;48.482;9.206;2023-03-01T03:17:13;0.20;69.80
9820;DHT22;4949;48.482;9.206;2023-03-01T03:22:14;0.20;69.50
9820;DHT22;4949;48.482;9.206;2023-03-01T03:27:17;0.30;69.20
9820;DHT22;4949;48.482;9.206;2023-03-01T03:32:18;0.30;69.60
9820;DHT22;4949;48.482;9.206;2023-03-01T03:37:21;0.50;69.60
9820;DHT22;4949;48.482;9.206;2023-03-01T03:42:51;0.30;69.30
9820;DHT22;4949;48.482;9.206;2023-03-01T03:47:52;0.30;69.80
9820;DHT22;4949;48.482;9.206;2023-03-01T03:52:55;0.30;69.60
9820;DHT22;4949;48.482;9.206;2023-03-01T03:57:58;0.40;69.20
9820;DHT22;4949;48.482;9.206;2023-03-01T04:03:08;0.20;68.80
9820;DHT22;4949;48.482;9.206;2023-03-01T04:08:09;0.40;69.20
9820;DHT22;4949;48.482;9.206;2023-03-01T04:13:14;0.40;69.10
9820;DHT22;4949;48.482;9.206;2023-03-01T04:18:19;0.40;69.20
9820;DHT22;4949;48.482;9.206;2023-03-01T04:23:23;0.50;69.00
9820;DHT22;4949;48.482;9.206;2023-03-01T04:28:32;0.40;69.20
9820;DHT22;4949;48.482;9.206;2023-03-01T04:33:34;0.50;68.80
9820;DHT22;4949;48.482;9.206;2023-03-01T04:38:38;0.60;68.80
9820;DHT22;4949;48.482;9.206;2023-03-01T04:43:41;0.60;68.30
9820;DHT22;4949;48.482;9.206;2023-03-01T04:48:43;0.50;67.80
9820;DHT22;4949;48.482;9.206;2023-03-01T04:53:47;0.70;68.40
9820;DHT22;4949;48.482;9.206;2023-03-01T04:58:53;1.00;68.50
9820;DHT22;4949;48.482;9.206;2023-03-01T05:03:57;0.80;67.70
9820;DHT22;4949;48.482;9.206;2023-03-01T05:09:06;0.80;68.10
9820;DHT22;4949;48.482;9.206;2023-03-01T05:14:07;0.70;68.50
9820;DHT22;4949;48.482;9.206;2023-03-01T05:19:11;0.70;68.90
9820;DHT22;4949;48.482;9.206;2023-03-01T05:24:15;0.80;69.00
9820;DHT22;4949;48.482;9.206;2023-03-01T05:29:16;0.70;68.80
9820;DHT22;4949;48.482;9.206;2023-03-01T05:34:17;0.70;68.60
9820;DHT22;4949;48.482;9.206;2023-03-01T05:39:18;0.80;68.80
9820;DHT22;4949;48.482;9.206;2023-03-01T05:44:24;0.80;68.70
9820;DHT22;4949;48.482;9.206;2023-03-01T05:49:27;0.80;68.60
9820;DHT22;4949;48.482;9.206;2023-03-01T05:54:33;0.80;68.80
9820;DHT22;4949;48.482;9.206;2023-03-01T05:59:36;0.60;68.90
9820;DHT22;4949;48.482;9.206;2023-03-01T06:04:37;0.70;69.30
9820;DHT22;4949;48.482;9.206;2023-03-01T06:09:37;0.80;68.90
9820;DHT22;4949;48.482;9.206;2023-03-01T06:14:40;0.80;68.80
9820;DHT22;4949;48.482;9.206;2023-03-01T06:19:44;0.80;69.20
9820;DHT22;4949;48.482;9.206;2023-03-01T06:24:44;0.80;68.80
9820;DHT22;4949;48.482;9.206;2023-03-01T06:29:50;0.80;69.20
9820;DHT22;4949;48.482;9.206;2023-03-01T06:34:51;0.80;69.30
9820;DHT22;4949;48.482;9.206;2023-03-01T06:39:52;0.90;69.00
9820;DHT22;4949;48.482;9.206;2023-03-01T06:44:55;1.00;68.70
9820;DHT22;4949;48.482;9.206;2023-03-01T06:49:56;0.90;68.60
9820;DHT22;4949;48.482;9.206;2023-03-01T06:54:57;1.00;68.40
9820;DHT22;4949;48.482;9.206;2023-03-01T07:00:07;1.00;68.60
9820;DHT22;4949;48.482;9.206;2023-03-01T07:05:11;1.00;68.30
9820;DHT22;4949;48.482;9.206;2023-03-01T07:10:14;1.00;68.50
9820;DHT22;4949;48.482;9.206;2023-03-01T07:15:15;1.10;68.40
9820;DHT22;4949;48.482;9.206;2023-03-01T07:20:18;1.10;68.40
9820;DHT22;4949;48.482;9.206;2023-03-01T07:25:24;1.00;68.40
9820;DHT22;4949;48.482;9.206;2023-03-01T07:30:28;1.10;68.30
9820;DHT22;4949;48.482;9.206;2023-03-01T07:35:28;1.20;68.00
9820;DHT22;4949;48.482;9.206;2023-03-01T07:40:32;1.30;67.70
9820;DHT22;4949;48.482;9.206;2023-03-01T07:45:35;1.40;67.40
9820;DHT22;4949;48.482;9.206;2023-03-01T07:50:38;1.40;66.60
9820;DHT22;4949;48.482;9.206;2023-03-01T07:55:39;1.50;66.90
9820;DHT22;4949;48.482;9.206;2023-03-01T08:00:42;1.40;66.70
9820;DHT22;4949;48.482;9.206;2023-03-01T08:05:42;1.50;66.40
9820;DHT22;4949;48.482;9.206;2023-03-01T08:10:43;1.50;66.30
9820;DHT22;4949;48.482;9.206;2023-03-01T08:15:44;1.50;66.60
9820;DHT22;4949;48.482;9.206;2023-03-01T08:20:47;1.70;66.40
9820;DHT22;4949;48.482;9.206;2023-03-01T08:25:50;1.60;66.10
9820;DHT22;4949;48.482;9.206;2023-03-01T08:30:54;1.70;66.00
9820;DHT22;4949;48.482;9.206;2023-03-01T08:36:05;1.80;66.20
9820;DHT22;4949;48.482;9.206;2023-03-01T08:41:07;1.80;66.10
9820;DHT22;4949;48.482;9.206;2023-03-01T08:46:08;1.90;66.40
9820;DHT22;4949;48.482;9.206;2023-03-01T08:51:13;2.10;65.30
9820;DHT22;4949;48.482;9.206;2023-03-01T08:56:16;2.20;64.90
9820;DHT22;4949;48.482;9.206;2023-03-01T09:01:19;2.30;64.50
9820;DHT22;4949;48.482;9.206;2023-03-01T09:06:20;2.40;64.10
9820;DHT22;4949;48.482;9.206;2023-03-01T09:11:23;2.50;64.50
9820;DHT22;4949;48.482;9.206;2023-03-01T09:16:31;2.60;63.70
9820;DHT22;4949;48.482;9.206;2023-03-01T09:21:37;2.80;63.20
9820;DHT22;4949;48.482;9.206;2023-03-01T09:26:40;2.90;63.10
9820;DHT22;4949;48.482;9.206;2023-03-01T09:31:42;3.10;62.80
9820;DHT22;4949;48.482;9.206;2023-03-01T09:36:43;3.20;62.10
9820;DHT22;4949;48.482;9.206;2023-03-01T09:41:49;3.30;61.60
9820;DHT22;4949;48.482;9.206;2023-03-01T09:46:55;3.40;61.40
9820;DHT22;4949;48.482;9.206;2023-03-01T09:52:19;3.60;60.40
9820;DHT22;4949;48.482;9.206;2023-03-01T09:57:36;3.80;59.90
9820;DHT22;4949;48.482;9.206;2023-03-01T10:02:47;3.90;59.80
9820;DHT22;4949;48.482;9.206;2023-03-01T10:08:23;4.10;59.10
9820;DHT22;4949;48.482;9.206;2023-03-01T10:13:34;4.40;57.20
9820;DHT22;4949;48.482;9.206;2023-03-01T10:18:41;4.50;56.70
9820;DHT22;4949;48.482;9.206;2023-03-01T10:23:44;4.80;56.30
9820;DHT22;4949;48.482;9.206;2023-03-01T10:33:48;5.50;54.80
9820;DHT22;4949;48.482;9.206;2023-03-01T10:38:58;5.90;54.60
9820;DHT22;4949;48.482;9.206;2023-03-01T10:44:02;6.20;52.10
9820;DHT22;4949;48.482;9.206;2023-03-01T10:49:22;6.40;52.20
9820;DHT22;4949;48.482;9.206;2023-03-01T10:54:32;6.70;51.70
9820;DHT22;4949;48.482;9.206;2023-03-01T10:59:38;6.90;50.80
9820;DHT22;4949;48.482;9.206;2023-03-01T11:04:39;7.20;50.70
9820;DHT22;4949;48.482;9.206;2023-03-01T11:09:39;7.40;49.70
9820;DHT22;4949;48.482;9.206;2023-03-01T11:14:50;7.50;48.70
9820;DHT22;4949;48.482;9.206;2023-03-01T11:25:15;9.20;47.60
9820;DHT22;4949;48.482;9.206;2023-03-01T11:30:30;9.20;45.80
9820;DHT22;4949;48.482;9.206;2023-03-01T11:35:37;9.60;44.80
9820;DHT22;4949;48.482;9.206;2023-03-01T11:52:15;10.30;42.60
9820;DHT22;4949;48.482;9.206;2023-03-01T12:08:41;10.70;42.10
9820;DHT22;4949;48.482;9.206;2023-03-01T12:37:13;12.00;39.70
9820;DHT22;4949;48.482;9.206;2023-03-01T12:52:56;12.70;38.30
9820;DHT22;4949;48.482;9.206;2023-03-01T12:58:21;12.90;37.80
9820;DHT22;4949;48.482;9.206;2023-03-01T13:03:38;12.80;38.00
9820;DHT22;4949;48.482;9.206;2023-03-01T13:09:39;12.80;37.80
9820;DHT22;4949;48.482;9.206;2023-03-01T13:14:36;12.90;37.60
9820;DHT22;4949;48.482;9.206;2023-03-01T13:19:56;12.80;37.40
9820;DHT22;4949;48.482;9.206;2023-03-01T13:30:45;12.90;37.80
9820;DHT22;4949;48.482;9.206;2023-03-01T13:35:49;13.10;37.50
9820;DHT22;4949;48.482;9.206;2023-03-01T13:45:51;13.20;36.40
9820;DHT22;4949;48.482;9.206;2023-03-01T13:51:00;13.00;37.00
9820;DHT22;4949;48.482;9.206;2023-03-01T13:56:12;13.10;37.00
9820;DHT22;4949;48.482;9.206;2023-03-01T14:06:29;13.30;37.00
9820;DHT22;4949;48.482;9.206;2023-03-01T14:16:48;13.40;36.50
9820;DHT22;4949;48.482;9.206;2023-03-01T14:27:25;13.60;36.00
9820;DHT22;4949;48.482;9.206;2023-03-01T14:32:29;13.60;35.80
9820;DHT22;4949;48.482;9.206;2023-03-01T14:37:33;13.40;36.60
9820;DHT22;4949;48.482;9.206;2023-03-01T14:42:36;13.40;36.50
9820;DHT22;4949;48.482;9.206;2023-03-01T14:47:37;13.50;36.60
9820;DHT22;4949;48.482;9.206;2023-03-01T14:52:44;13.60;36.30
9820;DHT22;4949;48.482;9.206;2023-03-01T14:57:52;13.80;36.00
9820;DHT22;4949;48.482;9.206;2023-03-01T15:02:55;13.70;35.80
9820;DHT22;4949;48.482;9.206;2023-03-01T15:08:01;13.40;36.70
9820;DHT22;4949;48.482;9.206;2023-03-01T15:13:21;13.60;36.20
9820;DHT22;4949;48.482;9.206;2023-03-01T15:18:29;13.50;36.20
9820;DHT22;4949;48.482;9.206;2023-03-01T15:23:34;13.60;36.30
9820;DHT22;4949;48.482;9.206;2023-03-01T15:28:48;13.50;36.40
9820;DHT22;4949;48.482;9.206;2023-03-01T15:33:51;13.20;36.90
9820;DHT22;4949;48.482;9.206;2023-03-01T15:38:58;13.10;37.40
9820;DHT22;4949;48.482;9.206;2023-03-01T15:49:41;13.00;37.50
9820;DHT22;4949;48.482;9.206;2023-03-01T15:54:42;13.00;37.70
9820;DHT22;4949;48.482;9.206;2023-03-01T15:59:45;12.70;37.80
9820;DHT22;4949;48.482;9.206;2023-03-01T16:04:52;12.40;38.60
9820;DHT22;4949;48.482;9.206;2023-03-01T16:09:56;12.20;39.00
9820;DHT22;4949;48.482;9.206;2023-03-01T16:15:00;12.10;39.10
9820;DHT22;4949;48.482;9.206;2023-03-01T16:20:01;11.90;39.60
9820;DHT22;4949;48.482;9.206;2023-03-01T16:25:02;11.70;40.20
9820;DHT22;4949;48.482;9.206;2023-03-01T16:30:04;11.40;40.20
9820;DHT22;4949;48.482;9.206;2023-03-01T16:35:07;11.30;40.10
9820;DHT22;4949;48.482;9.206;2023-03-01T16:40:24;10.90;41.00
9820;DHT22;4949;48.482;9.206;2023-03-01T16:45:35;10.70;41.70
9820;DHT22;4949;48.482;9.206;2023-03-01T16:50:36;10.50;42.40
9820;DHT22;4949;48.482;9.206;2023-03-01T16:55:37;10.10;42.80
9820;DHT22;4949;48.482;9.206;2023-03-01T17:00:45;10.20;42.50
9820;DHT22;4949;48.482;9.206;2023-03-01T17:05:46;10.10;43.10
9820;DHT22;4949;48.482;9.206;2023-03-01T17:10:49;9.70;44.50
9820;DHT22;4949;48.482;9.206;2023-03-01T17:15:50;9.50;45.30
9820;DHT22;4949;48.482;9.206;2023-03-01T17:20:51;9.20;45.60
9820;DHT22;4949;48.482;9.206;2023-03-01T17:25:54;9.20;45.90
9820;DHT22;4949;48.482;9.206;2023-03-01T17:30:55;9.10;46.00
9820;DHT22;4949;48.482;9.206;2023-03-01T17:35:57;9.00;46.30
9820;DHT22;4949;48.482;9.206;2023-03-01T17:40:59;8.90;46.40
9820;DHT22;4949;48.482;9.206;2023-03-01T17:46:05;8.80;46.80
9820;DHT22;4949;48.482;9.206;2023-03-01T17:51:09;8.60;47.30
9820;DHT22;4949;48.482;9.206;2023-03-01T17:56:11;8.50;47.60
9820;DHT22;4949;48.482;9.206;2023-03-01T18:01:16;8.40;48.40
9820;DHT22;4949;48.482;9.206;2023-03-01T18:06:24;8.40;48.70
9820;DHT22;4949;48.482;9.206;2023-03-01T18:11:26;8.50;49.20
9820;DHT22;4949;48.482;9.206;2023-03-01T18:16:29;8.30;49.00
9820;DHT22;4949;48.482;9.206;2023-03-01T18:21:33;8.20;49.30
9820;DHT22;4949;48.482;9.206;2023-03-01T18:26:39;8.10;49.60
9820;DHT22;4949;48.482;9.206;2023-03-01T18:31:42;8.00;50.10
9820;DHT22;4949;48.482;9.206;2023-03-01T18:36:46;7.90;50.40
9820;DHT22;4949;48.482;9.206;2023-03-01T18:41:49;7.80;51.20
9820;DHT22;4949;48.482;9.206;2023-03-01T18:46:55;7.60;51.90
9820;DHT22;4949;48.482;9.206;2023-03-01T18:51:58;7.50;52.40
9820;DHT22;4949;48.482;9.206;2023-03-01T18:56:59;7.50;52.90
9820;DHT22;4949;48.482;9.206;2023-03-01T19:02:02;7.40;53.00
9820;DHT22;4949;48.482;9.206;2023-03-01T19:07:03;7.40;53.10
9820;DHT22;4949;48.482;9.206;2023-03-01T19:12:08;7.30;53.00
9820;DHT22;4949;48.482;9.206;2023-03-01T19:17:11;7.30;53.80
9820;DHT22;4949;48.482;9.206;2023-03-01T19:22:13;7.20;53.30
9820;DHT22;4949;48.482;9.206;2023-03-01T19:27:16;7.20;53.50
9820;DHT22;4949;48.482;9.206;2023-03-01T19:32:35;7.00;54.00
9820;DHT22;4949;48.482;9.206;2023-03-01T19:37:36;7.00;54.40
9820;DHT22;4949;48.482;9.206;2023-03-01T19:42:40;7.10;54.70
9820;DHT22;4949;48.482;9.206;2023-03-01T19:47:46;6.90;54.70
9820;DHT22;4949;48.482;9.206;2023-03-01T19:52:50;6.90;55.10
9820;DHT22;4949;48.482;9.206;2023-03-01T19:57:56;7.00;55.80
9820;DHT22;4949;48.482;9.206;2023-03-01T20:03:26;6.80;54.70
9820;DHT22;4949;48.482;9.206;2023-03-01T20:08:39;6.70;55.00
9820;DHT22;4949;48.482;9.206;2023-03-01T20:13:40;6.90;54.80
9820;DHT22;4949;48.482;9.206;2023-03-01T20:18:44;6.70;54.20
9820;DHT22;4949;48.482;9.206;2023-03-01T20:23:47;6.70;53.50
9820;DHT22;4949;48.482;9.206;2023-03-01T20:28:52;6.60;53.60
9820;DHT22;4949;48.482;9.206;2023-03-01T20:33:56;6.40;53.50
9820;DHT22;4949;48.482;9.206;2023-03-01T20:39:02;6.20;53.80
9820;DHT22;4949;48.482;9.206;2023-03-01T20:44:04;6.10;54.00
9820;DHT22;4949;48.482;9.206;2023-03-01T20:49:06;6.00;54.10
9820;DHT22;4949;48.482;9.206;2023-03-01T20:54:09;6.00;54.60
9820;DHT22;4949;48.482;9.206;2023-03-01T20:59:13;5.80;55.00
9820;DHT22;4949;48.482;9.206;2023-03-01T21:04:17;5.70;55.20
9820;DHT22;4949;48.482;9.206;2023-03-01T21:09:18;5.60;55.70
9820;DHT22;4949;48.482;9.206;2023-03-01T21:14:19;5.60;55.70
9820;DHT22;4949;48.482;9.206;2023-03-01T21:19:23;5.50;55.70
9820;DHT22;4949;48.482;9.206;2023-03-01T21:24:24;5.30;56.30
9820;DHT22;4949;48.482;9.206;2023-03-01T21:29:24;5.20;57.20
9820;DHT22;4949;48.482;9.206;2023-03-01T21:34:25;4.90;57.90
9820;DHT22;4949;48.482;9.206;2023-03-01T21:39:33;5.20;58.30
9820;DHT22;4949;48.482;9.206;2023-03-01T21:44:41;4.90;58.70
9820;DHT22;4949;48.482;9.206;2023-03-01T21:49:44;4.80;59.20
9820;DHT22;4949;48.482;9.206;2023-03-01T21:54:45;4.50;59.80
9820;DHT22;4949;48.482;9.206;2023-03-01T21:59:46;4.40;60.40
9820;DHT22;4949;48.482;9.206;2023-03-01T22:04:50;4.30;61.70
9820;DHT22;4949;48.482;9.206;2023-03-01T22:09:56;4.40;61.20
9820;DHT22;4949;48.482;9.206;2023-03-01T22:14:57;4.30;61.20
9820;DHT22;4949;48.482;9.206;2023-03-01T22:19:57;4.10;61.70
9820;DHT22;4949;48.482;9.206;2023-03-01T22:24:58;4.10;62.10
9820;DHT22;4949;48.482;9.206;2023-03-01T22:29:59;3.90;62.90
9820;DHT22;4949;48.482;9.206;2023-03-01T22:35:05;3.70;63.40
9820;DHT22;4949;48.482;9.206;2023-03-01T22:40:07;3.70;63.50
9820;DHT22;4949;48.482;9.206;2023-03-01T22:45:11;3.60;63.80
9820;DHT22;4949;48.482;9.206;2023-03-01T22:50:12;3.50;64.70
9820;DHT22;4949;48.482;9.206;2023-03-01T22:55:18;3.40;64.10
9820;DHT22;4949;48.482;9.206;2023-03-01T23:00:19;3.20;64.80
9820;DHT22;4949;48.482;9.206;2023-03-01T23:05:22;3.20;64.80
9820;DHT22;4949;48.482;9.206;2023-03-01T23:10:23;3.10;65.30
9820;DHT22;4949;48.482;9.206;2023-03-01T23:15:25;3.00;65.20
9820;DHT22;4949;48.482;9.206;2023-03-01T23:20:26;3.00;65.40
9820;DHT22;4949;48.482;9.206;2023-03-01T23:25:26;2.90;65.90
9820;DHT22;4949;48.482;9.206;2023-03-01T23:30:30;2.90;66.20
9820;DHT22;4949;48.482;9.206;2023-03-01T23:35:31;2.80;66.50
9820;DHT22;4949;48.482;9.206;2023-03-01T23:40:41;2.70;66.40
9820;DHT22;4949;48.482;9.206;2023-03-01T23:45:51;2.70;66.90
9820;DHT22;4949;48.482;9.206;2023-03-01T23:50:54;2.60;67.00
9820;DHT22;4949;48.482;9.206;2023-03-01T23:55:57;2.50;67.10
